Terminal Aerodrome Forecast
Issued by NWS

Home | Current Version | Previous Version | Text Only | Print | Product List | Glossary On
Versions: 1 2 3 4 5 6 7 8 9 10 11 12 13 14 15 16 17 18 19 20 21 22 23 24 25 26
000
FTUS41 KBOX 231738
TAFBED
TAF
KBED 231738Z 2318/2418 24008KT P6SM SCT250
     FM232200 21004KT P6SM BKN110
     FM240900 14005KT 6SM -RA BKN080 WS020/15040KT
     FM241100 14008KT 1SM RA OVC010 WS020/15040KT
     FM241700 19012G27KT P6SM BKN008=

USA.gov is the U.S. government's official web portal to all federal, state and local government web resources and services.